Portada
METAR-TAF:

METAR-TAF

Aeroports :

Tindouf, Algèria

latitud: 27-40N, longitud: 008-08W, altitud: 431 m

Observació

L'informe es va fer fa 35 minuts, a les 11:00 UTC
Vent 5 kt del Sud-Est
Temperatura 41°C
Humitat 9%
Pressió 1013 hPa
Visibilitat: 8000 m

METAR: DAOF 171100Z 14005KT 8000 NSC 41/02 Q1013

Hora: 12:35 (11:35 UTC)

Pronòstic

L'informe es va fer fa 3 hores i 35 minuts, a les 08:00 UTC
Pronòstic vàlid del 17 a les 09 UTC al 17 a les 18 UTC
Vent 12 kt del Oest/Sud-Oest
Visibilitat: 8000 m

TAF: DAOF 170800Z 1709/1718 24012KT 8000 NSC

Observacions i pronòstics meteorològics de més de 4000 aeroports (METAR i TAF).

Les estacions disponibles són els punts grocs i vermells al mapa.

Posi el ratolí al punt desitjat per veure el nom de l'estació.

Feu clic per veure les observacions i els pronòstics meteorològics.

Per canviar el mapa: feu clic els botons verds amb una creu de color negre per apropar; al botó verd amb un guió per allunyar la imatge; o en les fletxes verdes per a mapes adjacents.


METAR-TAF: